Time;durP1;ratioP1;P1;durP2;ratioP2;P2;SDS_P1;SDS_P2;PMS_P1;PMS_P2;Temp;Humidity;BMP_temperature;BMP_pressure;BME280_temperature;BME280_humidity;BME280_pressure;Samples;Min_cycle;Max_cycle;Signal;HPM_P1;HPM_P2
2023/09/03 00:02:04;;;;;;;9.43;6.13;;;;;;;;;;10024122;28;20531;-68
2023/09/03 00:06:56;;;;;;;6.97;5.32;;;;;;;;;;10022722;28;20066;-69
2023/09/03 00:11:47;;;;;;;8.90;5.13;;;;;;;;;;9995086;28;20046;-69
2023/09/03 00:16:39;;;;;;;6.75;5.80;;;;;;;;;;9982552;28;20042;-70
2023/09/03 00:21:31;;;;;;;8.45;5.20;;;;;;;;;;10017595;28;20046;-69
2023/09/03 00:26:26;;;;;;;9.80;5.25;;;;;;;;;;10011910;28;20093;-70
2023/09/03 00:31:25;;;;;;;5.53;5.00;;;;;;;;;;10017088;28;20111;-69
2023/09/03 00:36:17;;;;;;;7.45;4.75;;;;;;;;;;9995171;28;20047;-68
2023/09/03 00:41:09;;;;;;;9.98;5.68;;;;;;;;;;10025997;28;20306;-69
2023/09/03 00:46:04;;;;;;;6.93;5.70;;;;;;;;;;10037300;28;20038;-70
2023/09/03 00:50:59;;;;;;;9.35;5.40;;;;;;;;;;10013255;28;20050;-68
2023/09/03 00:55:52;;;;;;;9.00;5.63;;;;;;;;;;10016610;28;20046;-70
2023/09/03 01:00:44;;;;;;;13.50;6.75;;;;;;;;;;10007233;28;20374;-69
2023/09/03 01:05:36;;;;;;;6.13;5.53;;;;;;;;;;9980263;28;20089;-70
2023/09/03 01:11:09;;;;;;;8.15;7.03;;;;;;;;;;9968875;28;20077;-69
2023/09/03 01:16:13;;;;;;;6.55;5.95;;;;;;;;;;10036056;28;20135;-71
2023/09/03 01:21:48;;;;;;;7.47;6.25;;;;;;;;;;10031741;28;20130;-70
2023/09/03 01:26:58;;;;;;;9.98;5.70;;;;;;;;;;9988761;28;20045;-70
2023/09/03 01:31:50;;;;;;;8.38;6.07;;;;;;;;;;10006534;28;20365;-70
2023/09/03 01:36:42;;;;;;;6.85;5.55;;;;;;;;;;9986109;28;20147;-69
2023/09/03 01:41:37;;;;;;;6.60;4.85;;;;;;;;;;9987247;28;20043;-71
2023/09/03 01:46:41;;;;;;;10.13;5.68;;;;;;;;;;10030256;28;20073;-70
2023/09/03 01:51:36;;;;;;;6.30;5.68;;;;;;;;;;10027423;28;20456;-69
2023/09/03 01:56:29;;;;;;;6.57;5.82;;;;;;;;;;10026142;28;20052;-70
2023/09/03 02:01:22;;;;;;;7.20;5.60;;;;;;;;;;10007786;28;20499;-69
2023/09/03 02:06:16;;;;;;;8.77;6.03;;;;;;;;;;9982935;28;20424;-70
2023/09/03 02:11:08;;;;;;;8.20;5.57;;;;;;;;;;9995994;28;20046;-70
2023/09/03 02:16:00;;;;;;;6.53;5.93;;;;;;;;;;10004363;28;20093;-70
2023/09/03 02:20:52;;;;;;;5.93;5.30;;;;;;;;;;9999946;28;20046;-71
2023/09/03 02:25:43;;;;;;;7.05;5.45;;;;;;;;;;9976722;28;20487;-70
2023/09/03 02:30:35;;;;;;;8.48;6.45;;;;;;;;;;10016771;28;20073;-69
2023/09/03 02:35:27;;;;;;;6.97;5.60;;;;;;;;;;10009286;28;20049;-69
2023/09/03 02:40:20;;;;;;;6.88;5.97;;;;;;;;;;10024518;28;20057;-70
2023/09/03 02:45:11;;;;;;;6.78;6.18;;;;;;;;;;9989629;28;20047;-70
2023/09/03 02:50:04;;;;;;;5.85;5.25;;;;;;;;;;9983866;28;20038;-71
2023/09/03 02:54:56;;;;;;;8.45;5.68;;;;;;;;;;9993734;28;20046;-69
2023/09/03 02:59:48;;;;;;;8.70;7.57;;;;;;;;;;10023646;28;20116;-70
2023/09/03 03:04:40;;;;;;;8.50;7.60;;;;;;;;;;10008303;28;20179;-70
2023/09/03 03:09:32;;;;;;;7.22;6.53;;;;;;;;;;10017998;28;20050;-70
2023/09/03 03:14:24;;;;;;;7.68;4.82;;;;;;;;;;10006140;28;20095;-69
2023/09/03 03:19:17;;;;;;;7.40;5.45;;;;;;;;;;9996918;28;20046;-70
2023/09/03 03:24:10;;;;;;;6.43;5.55;;;;;;;;;;9983207;28;20097;-70
2023/09/03 03:29:04;;;;;;;11.45;7.25;;;;;;;;;;10023050;28;20096;-70
2023/09/03 03:34:00;;;;;;;6.25;5.65;;;;;;;;;;9993499;28;20373;-70
2023/09/03 03:38:53;;;;;;;7.90;6.72;;;;;;;;;;9976447;28;20198;-70
2023/09/03 03:43:48;;;;;;;6.22;5.55;;;;;;;;;;9979264;28;20055;-71
2023/09/03 03:48:43;;;;;;;8.18;5.32;;;;;;;;;;9964787;28;20508;-70
2023/09/03 03:53:35;;;;;;;8.18;5.80;;;;;;;;;;9974213;28;20046;-69
2023/09/03 03:58:30;;;;;;;5.88;5.22;;;;;;;;;;9979551;28;20054;-70
2023/09/03 04:03:23;;;;;;;6.57;5.72;;;;;;;;;;9974846;28;20137;-69
2023/09/03 04:08:15;;;;;;;6.05;5.20;;;;;;;;;;9972805;28;20042;-68
2023/09/03 04:13:07;;;;;;;5.88;5.20;;;;;;;;;;10003566;28;20046;-71
2023/09/03 04:18:00;;;;;;;9.88;5.05;;;;;;;;;;10001494;28;20133;-70
2023/09/03 04:22:55;;;;;;;6.55;5.00;;;;;;;;;;10003894;28;20153;-70
2023/09/03 04:27:48;;;;;;;5.90;4.80;;;;;;;;;;9998450;28;20050;-70
2023/09/03 04:32:40;;;;;;;7.35;5.57;;;;;;;;;;9981441;28;20045;-70
2023/09/03 04:37:32;;;;;;;7.28;5.72;;;;;;;;;;9982623;28;20050;-70
2023/09/03 04:42:25;;;;;;;7.80;5.07;;;;;;;;;;9980129;28;20058;-69
2023/09/03 04:47:17;;;;;;;5.40;4.90;;;;;;;;;;9978215;28;20058;-70
2023/09/03 04:52:09;;;;;;;8.20;5.75;;;;;;;;;;9981432;28;20429;-70
2023/09/03 04:57:01;;;;;;;5.80;5.25;;;;;;;;;;10007612;28;20479;-70
2023/09/03 05:01:53;;;;;;;6.18;5.25;;;;;;;;;;9993626;28;20050;-70
2023/09/03 05:06:46;;;;;;;5.90;5.22;;;;;;;;;;10000303;28;20145;-70
2023/09/03 05:11:43;;;;;;;8.65;5.78;;;;;;;;;;9986662;28;20052;-70
2023/09/03 05:16:35;;;;;;;8.07;5.78;;;;;;;;;;10018687;28;20041;-69
2023/09/03 05:21:27;;;;;;;7.53;5.85;;;;;;;;;;10016183;28;20053;-70
2023/09/03 05:26:19;;;;;;;7.80;5.25;;;;;;;;;;9987990;28;20136;-71
2023/09/03 05:31:11;;;;;;;6.60;5.82;;;;;;;;;;9996117;28;20057;-70
2023/09/03 05:36:03;;;;;;;9.70;6.70;;;;;;;;;;9996768;28;20517;-69
2023/09/03 05:40:58;;;;;;;7.25;6.55;;;;;;;;;;9993812;28;20058;-71
2023/09/03 05:45:50;;;;;;;7.60;6.85;;;;;;;;;;9987376;28;20109;-72
2023/09/03 05:50:42;;;;;;;9.05;7.45;;;;;;;;;;10002629;28;20383;-72
2023/09/03 05:55:39;;;;;;;8.00;7.22;;;;;;;;;;9983504;28;20469;-69
2023/09/03 06:00:32;;;;;;;9.98;8.13;;;;;;;;;;10002643;28;20361;-73
2023/09/03 06:05:27;;;;;;;9.85;7.88;;;;;;;;;;10003656;28;20046;-72
2023/09/03 06:10:21;;;;;;;8.90;7.53;;;;;;;;;;9992958;28;20137;-69
2023/09/03 06:15:13;;;;;;;9.05;8.15;;;;;;;;;;9985772;28;20381;-70
2023/09/03 06:20:05;;;;;;;12.00;7.15;;;;;;;;;;10006608;28;20046;-68
2023/09/03 06:24:57;;;;;;;10.13;8.23;;;;;;;;;;10001769;28;20050;-69
2023/09/03 06:29:49;;;;;;;9.02;7.28;;;;;;;;;;9984331;28;20062;-69
2023/09/03 06:34:41;;;;;;;9.52;6.05;;;;;;;;;;10003360;28;20102;-70
2023/09/03 06:39:33;;;;;;;6.47;5.55;;;;;;;;;;9987512;28;20133;-69
2023/09/03 06:44:25;;;;;;;7.97;5.38;;;;;;;;;;10005587;28;20046;-70
2023/09/03 06:49:17;;;;;;;13.25;5.93;;;;;;;;;;10025930;28;20061;-69
2023/09/03 06:54:08;;;;;;;8.95;5.18;;;;;;;;;;9999704;28;20050;-70
2023/09/03 06:59:01;;;;;;;8.52;6.30;;;;;;;;;;10025020;28;20472;-69
2023/09/03 07:03:52;;;;;;;9.63;5.35;;;;;;;;;;9990588;28;20054;-68
2023/09/03 07:08:44;;;;;;;5.68;5.18;;;;;;;;;;9999297;28;20050;-70
2023/09/03 07:13:36;;;;;;;5.47;4.78;;;;;;;;;;9998481;28;20092;-70
2023/09/03 07:18:28;;;;;;;5.55;5.00;;;;;;;;;;10021187;28;20054;-70
2023/09/03 07:23:20;;;;;;;8.02;5.25;;;;;;;;;;10014928;28;20449;-71
2023/09/03 07:28:11;;;;;;;11.15;4.97;;;;;;;;;;9994098;28;20137;-71
2023/09/03 07:33:03;;;;;;;10.43;6.18;;;;;;;;;;9984650;28;20191;-62
2023/09/03 07:37:56;;;;;;;11.30;5.05;;;;;;;;;;10009644;28;20042;-62
2023/09/03 07:42:48;;;;;;;9.23;5.32;;;;;;;;;;10011458;28;20133;-61
2023/09/03 07:47:39;;;;;;;5.43;4.90;;;;;;;;;;9989389;28;20124;-63
2023/09/03 07:52:31;;;;;;;8.10;4.97;;;;;;;;;;10017362;28;20418;-64
2023/09/03 07:57:23;;;;;;;4.75;4.22;;;;;;;;;;10009284;28;20141;-64
2023/09/03 08:02:15;;;;;;;10.20;6.20;;;;;;;;;;9983353;28;20050;-64
2023/09/03 08:07:08;;;;;;;5.97;5.38;;;;;;;;;;9983989;28;20223;-66
2023/09/03 08:12:00;;;;;;;7.30;5.80;;;;;;;;;;9993648;28;20129;-64
2023/09/03 08:16:52;;;;;;;8.48;5.53;;;;;;;;;;10010695;28;20050;-64
2023/09/03 08:21:44;;;;;;;11.07;6.10;;;;;;;;;;10023020;28;20053;-64
2023/09/03 08:26:37;;;;;;;11.18;6.53;;;;;;;;;;10022496;28;20053;-63
2023/09/03 08:31:29;;;;;;;7.00;5.72;;;;;;;;;;10022876;28;20124;-64
2023/09/03 08:36:24;;;;;;;12.65;5.97;;;;;;;;;;10022922;28;20081;-63
2023/09/03 08:41:18;;;;;;;7.40;5.53;;;;;;;;;;10022422;28;20152;-65
2023/09/03 08:46:14;;;;;;;15.85;5.97;;;;;;;;;;10022693;28;20144;-64
2023/09/03 08:51:07;;;;;;;7.03;6.32;;;;;;;;;;10022184;28;20192;-64
2023/09/03 08:55:59;;;;;;;15.13;6.20;;;;;;;;;;10010715;28;20050;-63
2023/09/03 09:00:54;;;;;;;15.73;6.32;;;;;;;;;;10016057;28;20145;-63
2023/09/03 09:05:47;;;;;;;7.18;6.47;;;;;;;;;;10013922;28;20049;-64
2023/09/03 09:10:43;;;;;;;8.30;6.47;;;;;;;;;;10000608;28;20501;-59
2023/09/03 09:15:36;;;;;;;14.23;6.78;;;;;;;;;;9999510;28;20065;-61
2023/09/03 09:20:31;;;;;;;9.05;6.57;;;;;;;;;;9996887;28;20379;-63
2023/09/03 09:25:25;;;;;;;9.75;7.63;;;;;;;;;;10034009;28;20046;-63
2023/09/03 09:30:21;;;;;;;8.20;6.55;;;;;;;;;;10020803;28;20097;-63
2023/09/03 09:35:23;;;;;;;9.27;8.15;;;;;;;;;;9998742;28;20113;-62
2023/09/03 09:40:26;;;;;;;9.48;6.43;;;;;;;;;;10027685;28;20045;-63
2023/09/03 09:45:18;;;;;;;9.65;6.35;;;;;;;;;;10004188;28;20046;-62
2023/09/03 09:50:10;;;;;;;12.23;6.85;;;;;;;;;;10037265;28;20041;-61
2023/09/03 09:55:03;;;;;;;11.25;6.88;;;;;;;;;;10056460;28;20375;-64
2023/09/03 09:59:56;;;;;;;9.45;6.72;;;;;;;;;;9994196;28;20050;-63
2023/09/03 10:04:51;;;;;;;10.32;6.00;;;;;;;;;;10007262;28;20050;-62
2023/09/03 10:09:44;;;;;;;10.00;6.70;;;;;;;;;;10018460;28;20456;-62
2023/09/03 10:14:36;;;;;;;8.18;7.03;;;;;;;;;;10013818;28;20045;-62
2023/09/03 10:19:49;;;;;;;10.18;6.72;;;;;;;;;;10005018;28;20498;-63
2023/09/03 10:24:42;;;;;;;11.68;7.28;;;;;;;;;;9986790;28;20046;-63
2023/09/03 10:29:35;;;;;;;10.63;7.60;;;;;;;;;;10000049;28;20417;-62
2023/09/03 10:34:26;;;;;;;8.68;6.68;;;;;;;;;;9990005;28;20080;-64
2023/09/03 10:39:22;;;;;;;10.57;7.05;;;;;;;;;;10017064;28;20074;-64
2023/09/03 10:44:15;;;;;;;7.45;6.35;;;;;;;;;;10014337;28;20463;-63
2023/09/03 10:49:07;;;;;;;8.48;6.90;;;;;;;;;;9999767;28;20042;-64
2023/09/03 10:54:15;;;;;;;8.63;5.25;;;;;;;;;;10025934;28;20136;-64
2023/09/03 10:59:07;;;;;;;6.50;5.85;;;;;;;;;;10013158;28;20043;-64
2023/09/03 11:04:03;;;;;;;12.98;5.65;;;;;;;;;;9980057;28;20577;-63
2023/09/03 11:09:01;;;;;;;7.38;6.07;;;;;;;;;;10023097;28;20053;-65
2023/09/03 11:13:53;;;;;;;9.88;6.25;;;;;;;;;;10025141;28;20354;-64
2023/09/03 11:18:49;;;;;;;7.75;5.93;;;;;;;;;;10024530;28;20046;-63
2023/09/03 11:24:04;;;;;;;9.73;5.82;;;;;;;;;;10022282;28;20385;-63
2023/09/03 11:28:56;;;;;;;6.88;4.72;;;;;;;;;;10025161;28;20132;-62
2023/09/03 11:33:50;;;;;;;6.20;4.95;;;;;;;;;;10008927;28;20052;-62
2023/09/03 11:38:42;;;;;;;7.03;4.32;;;;;;;;;;9988467;28;20054;-64
2023/09/03 11:43:39;;;;;;;7.78;5.03;;;;;;;;;;10023358;28;20129;-62
2023/09/03 11:48:32;;;;;;;4.97;4.25;;;;;;;;;;10025424;28;20042;-63
2023/09/03 11:53:24;;;;;;;5.53;3.90;;;;;;;;;;10007948;28;20113;-64
2023/09/03 11:58:19;;;;;;;5.95;4.35;;;;;;;;;;10023555;28;20038;-63
2023/09/03 12:03:11;;;;;;;7.60;4.05;;;;;;;;;;10024042;28;20046;-63
2023/09/03 12:08:04;;;;;;;5.78;4.22;;;;;;;;;;10001303;28;20058;-63
2023/09/03 12:12:59;;;;;;;5.88;3.70;;;;;;;;;;10007312;28;20228;-63
2023/09/03 12:17:51;;;;;;;5.35;3.95;;;;;;;;;;10002217;28;20100;-67
2023/09/03 12:22:43;;;;;;;5.22;3.63;;;;;;;;;;10011618;28;20046;-64
2023/09/03 12:27:48;;;;;;;7.82;4.18;;;;;;;;;;10010592;28;20158;-65
2023/09/03 12:32:40;;;;;;;6.32;3.47;;;;;;;;;;9994141;28;20129;-64
2023/09/03 12:37:40;;;;;;;10.20;4.25;;;;;;;;;;9994101;28;20432;-62
2023/09/03 12:42:32;;;;;;;6.07;3.70;;;;;;;;;;9997206;28;20049;-61
2023/09/03 12:47:24;;;;;;;5.13;3.42;;;;;;;;;;10024405;28;20045;-63
2023/09/03 12:52:16;;;;;;;6.78;4.40;;;;;;;;;;9998026;28;20042;-62
2023/09/03 12:57:07;;;;;;;8.27;3.20;;;;;;;;;;10011945;28;20070;-63
2023/09/03 13:01:59;;;;;;;11.90;4.07;;;;;;;;;;9997231;28;20141;-63
2023/09/03 13:06:51;;;;;;;3.60;3.20;;;;;;;;;;10006512;28;20083;-63
2023/09/03 13:11:43;;;;;;;4.47;3.47;;;;;;;;;;10009744;28;20046;-62
2023/09/03 13:16:35;;;;;;;6.60;3.40;;;;;;;;;;10018984;28;20137;-62
2023/09/03 13:21:27;;;;;;;8.00;4.68;;;;;;;;;;10017543;28;20145;-63
2023/09/03 13:26:19;;;;;;;6.15;4.55;;;;;;;;;;10010505;28;20074;-62
2023/09/03 13:31:11;;;;;;;5.55;3.13;;;;;;;;;;10005880;28;20487;-62
2023/09/03 13:36:04;;;;;;;7.32;3.58;;;;;;;;;;10003017;28;20499;-63
2023/09/03 13:40:56;;;;;;;6.90;3.42;;;;;;;;;;10004789;28;20043;-62
2023/09/03 13:45:56;;;;;;;7.05;3.72;;;;;;;;;;10002466;28;20056;-62
2023/09/03 13:50:48;;;;;;;4.82;3.00;;;;;;;;;;10027658;28;20038;-63
2023/09/03 13:55:40;;;;;;;5.03;4.28;;;;;;;;;;10018182;28;20046;-61
2023/09/03 14:00:32;;;;;;;9.60;4.10;;;;;;;;;;10028299;28;20081;-63
2023/09/03 14:05:24;;;;;;;6.03;3.30;;;;;;;;;;10006961;28;20073;-62
2023/09/03 14:10:16;;;;;;;5.35;3.35;;;;;;;;;;9989612;28;20042;-62
2023/09/03 14:15:09;;;;;;;7.25;3.67;;;;;;;;;;10007111;28;20105;-64
2023/09/03 14:20:02;;;;;;;4.80;3.65;;;;;;;;;;9999619;28;20489;-63
2023/09/03 14:24:54;;;;;;;4.72;3.10;;;;;;;;;;10006881;28;20049;-62
2023/09/03 14:29:46;;;;;;;6.50;3.33;;;;;;;;;;10028595;28;20049;-61
2023/09/03 14:34:41;;;;;;;6.43;3.90;;;;;;;;;;10033549;28;20050;-61
2023/09/03 14:39:34;;;;;;;5.00;3.03;;;;;;;;;;9996313;28;20547;-62
2023/09/03 14:44:26;;;;;;;4.20;3.10;;;;;;;;;;10030923;28;20393;-71
2023/09/03 14:49:20;;;;;;;4.15;2.90;;;;;;;;;;10003137;28;20050;-72
2023/09/03 14:54:12;;;;;;;6.40;2.78;;;;;;;;;;10011887;28;20064;-72
2023/09/03 14:59:04;;;;;;;6.63;2.88;;;;;;;;;;9989078;28;20452;-73
2023/09/03 15:03:56;;;;;;;4.45;2.90;;;;;;;;;;10026748;28;20050;-71
2023/09/03 15:08:49;;;;;;;5.57;3.03;;;;;;;;;;10013855;28;20093;-71
2023/09/03 15:13:52;;;;;;;7.68;3.30;;;;;;;;;;10010704;28;20042;-72
2023/09/03 15:18:44;;;;;;;3.58;2.60;;;;;;;;;;10042215;28;20053;-71
2023/09/03 15:23:36;;;;;;;4.93;2.50;;;;;;;;;;10024694;28;20135;-73
2023/09/03 15:28:28;;;;;;;4.38;3.05;;;;;;;;;;10030374;28;20502;-71
2023/09/03 15:33:20;;;;;;;3.47;2.15;;;;;;;;;;10034818;28;20045;-73
2023/09/03 15:38:13;;;;;;;5.53;2.60;;;;;;;;;;10032551;28;20077;-74
2023/09/03 15:43:06;;;;;;;4.85;3.30;;;;;;;;;;10007310;28;20054;-72
2023/09/03 15:48:02;;;;;;;3.50;2.33;;;;;;;;;;10020913;28;20129;-71
2023/09/03 15:52:54;;;;;;;3.58;2.30;;;;;;;;;;9999740;28;20156;-72
2023/09/03 15:57:46;;;;;;;7.10;2.78;;;;;;;;;;10025194;28;20097;-72
2023/09/03 16:02:38;;;;;;;4.32;2.30;;;;;;;;;;10025096;28;20054;-71
2023/09/03 16:07:30;;;;;;;6.80;2.15;;;;;;;;;;10023489;28;20141;-72
2023/09/03 16:12:22;;;;;;;3.67;2.35;;;;;;;;;;10024036;28;20045;-71
2023/09/03 16:17:14;;;;;;;5.50;2.45;;;;;;;;;;10029628;28;20456;-71
2023/09/03 16:22:06;;;;;;;3.92;2.63;;;;;;;;;;10029530;28;20072;-71
2023/09/03 16:26:58;;;;;;;4.57;2.50;;;;;;;;;;10021165;28;20076;-73
2023/09/03 16:31:51;;;;;;;4.80;2.67;;;;;;;;;;10022643;28;20113;-74
2023/09/03 16:36:44;;;;;;;5.45;2.35;;;;;;;;;;10011673;28;20073;-74
2023/09/03 16:41:36;;;;;;;4.60;2.25;;;;;;;;;;10011171;28;20132;-73
2023/09/03 16:46:28;;;;;;;8.73;2.45;;;;;;;;;;10025657;28;20092;-70
2023/09/03 16:51:23;;;;;;;6.03;2.65;;;;;;;;;;10025294;28;20049;-72
2023/09/03 16:56:16;;;;;;;3.20;2.58;;;;;;;;;;10023023;28;20052;-71
2023/09/03 17:01:08;;;;;;;4.82;2.15;;;;;;;;;;10012910;28;20066;-69
2023/09/03 17:06:00;;;;;;;8.02;3.25;;;;;;;;;;10015977;28;20147;-70
2023/09/03 17:10:52;;;;;;;9.38;4.18;;;;;;;;;;10013628;28;20093;-69
2023/09/03 17:15:44;;;;;;;6.85;3.03;;;;;;;;;;10027740;28;20065;-70
2023/09/03 17:20:40;;;;;;;4.78;4.03;;;;;;;;;;10031851;28;20050;-72
2023/09/03 17:25:32;;;;;;;8.97;4.20;;;;;;;;;;10019003;28;20057;-69
2023/09/03 17:30:24;;;;;;;5.75;2.40;;;;;;;;;;10030651;28;20480;-74
2023/09/03 17:35:16;;;;;;;10.05;3.00;;;;;;;;;;10040043;28;20136;-73
2023/09/03 17:40:10;;;;;;;5.00;2.53;;;;;;;;;;10031443;28;20148;-76
2023/09/03 17:45:02;;;;;;;4.13;2.85;;;;;;;;;;10014275;28;20426;-72
2023/09/03 17:49:55;;;;;;;4.82;2.40;;;;;;;;;;9999935;28;20842;-71
2023/09/03 17:54:47;;;;;;;6.00;3.00;;;;;;;;;;10007894;28;20054;-72
2023/09/03 17:59:39;;;;;;;4.88;2.55;;;;;;;;;;10025410;28;20052;-72
2023/09/03 18:04:31;;;;;;;4.22;2.70;;;;;;;;;;10006449;28;20046;-74
2023/09/03 18:09:23;;;;;;;3.97;2.55;;;;;;;;;;10044957;28;20041;-72
2023/09/03 18:14:15;;;;;;;5.93;2.75;;;;;;;;;;10027162;28;20049;-74
2023/09/03 18:19:07;;;;;;;2.85;2.60;;;;;;;;;;10005041;28;20056;-71
2023/09/03 18:23:59;;;;;;;5.95;2.83;;;;;;;;;;10033329;28;20114;-72
2023/09/03 18:28:51;;;;;;;3.95;3.40;;;;;;;;;;10013918;28;20473;-70
2023/09/03 18:33:43;;;;;;;8.95;3.53;;;;;;;;;;10036258;28;20038;-71
2023/09/03 18:38:35;;;;;;;5.85;3.10;;;;;;;;;;10023633;28;20053;-68
2023/09/03 18:43:27;;;;;;;6.32;4.05;;;;;;;;;;10015221;28;20050;-68
2023/09/03 18:48:19;;;;;;;8.73;4.10;;;;;;;;;;10019427;28;20449;-70
2023/09/03 18:53:12;;;;;;;26.40;6.10;;;;;;;;;;10012729;28;20053;-69
2023/09/03 18:58:05;;;;;;;5.35;3.80;;;;;;;;;;10022371;28;20042;-69
2023/09/03 19:02:57;;;;;;;7.10;4.10;;;;;;;;;;10011893;28;20163;-69
2023/09/03 19:07:49;;;;;;;7.00;3.90;;;;;;;;;;10014108;28;20050;-70
2023/09/03 19:12:41;;;;;;;4.40;3.67;;;;;;;;;;9995292;28;20353;-70
2023/09/03 19:17:33;;;;;;;4.82;3.70;;;;;;;;;;9996244;28;20399;-70
2023/09/03 19:22:25;;;;;;;5.93;4.00;;;;;;;;;;9983855;28;20495;-69
2023/09/03 19:27:17;;;;;;;9.07;5.53;;;;;;;;;;10000995;28;20074;-70
2023/09/03 19:32:09;;;;;;;8.02;3.63;;;;;;;;;;9999411;28;20046;-70
2023/09/03 19:37:01;;;;;;;7.43;4.05;;;;;;;;;;9991319;28;20137;-70
2023/09/03 19:41:54;;;;;;;4.43;3.97;;;;;;;;;;9982101;28;20069;-68
2023/09/03 19:46:47;;;;;;;8.23;4.75;;;;;;;;;;9994428;28;20547;-69
2023/09/03 19:51:39;;;;;;;21.10;5.25;;;;;;;;;;10021632;28;20480;-70
2023/09/03 19:56:31;;;;;;;5.63;4.15;;;;;;;;;;10016912;28;20377;-69
2023/09/03 20:01:30;;;;;;;5.53;4.80;;;;;;;;;;10204453;27;20468;-70
2023/09/03 20:06:23;;;;;;;4.82;3.80;;;;;;;;;;10216247;28;20043;-70
2023/09/03 20:11:15;;;;;;;5.10;4.00;;;;;;;;;;10190273;28;20109;-70
2023/09/03 20:16:08;;;;;;;6.85;4.38;;;;;;;;;;10217348;28;20036;-71
2023/09/03 20:21:01;;;;;;;5.55;4.75;;;;;;;;;;10205002;28;20144;-71
2023/09/03 20:26:05;;;;;;;8.73;5.22;;;;;;;;;;10200448;28;20047;-69
2023/09/03 20:30:57;;;;;;;10.15;4.75;;;;;;;;;;10168618;28;20056;-71
2023/09/03 20:35:51;;;;;;;7.88;5.72;;;;;;;;;;10178637;28;20040;-69
2023/09/03 20:40:43;;;;;;;9.52;4.43;;;;;;;;;;10200329;28;20327;-70
2023/09/03 20:45:34;;;;;;;7.90;4.90;;;;;;;;;;10227585;28;20891;-71
2023/09/03 20:50:26;;;;;;;6.50;4.78;;;;;;;;;;10258969;28;20071;-71
2023/09/03 20:55:18;;;;;;;8.15;5.10;;;;;;;;;;10249937;28;20185;-70
2023/09/03 21:00:11;;;;;;;8.18;5.10;;;;;;;;;;10259446;28;20426;-69
2023/09/03 21:05:04;;;;;;;4.82;4.43;;;;;;;;;;10260087;28;20501;-71
2023/09/03 21:09:56;;;;;;;8.77;5.60;;;;;;;;;;10249006;28;20187;-71
2023/09/03 21:14:47;;;;;;;9.10;4.97;;;;;;;;;;10231562;28;20103;-70
2023/09/03 21:19:39;;;;;;;5.68;3.90;;;;;;;;;;10228657;28;20062;-70
2023/09/03 21:24:31;;;;;;;4.65;4.25;;;;;;;;;;10221530;28;20276;-70
2023/09/03 21:29:25;;;;;;;6.63;4.60;;;;;;;;;;10231117;28;20135;-71
2023/09/03 21:34:17;;;;;;;6.50;4.55;;;;;;;;;;10231464;28;20043;-70
2023/09/03 21:39:09;;;;;;;5.97;5.40;;;;;;;;;;10231069;28;20054;-71
2023/09/03 21:44:15;;;;;;;6.35;4.38;;;;;;;;;;10230557;28;20050;-70
2023/09/03 21:49:07;;;;;;;4.47;4.07;;;;;;;;;;10230631;28;20124;-70
2023/09/03 21:53:59;;;;;;;5.72;4.35;;;;;;;;;;10230560;28;20036;-71
2023/09/03 21:58:51;;;;;;;6.75;4.75;;;;;;;;;;10229496;28;20057;-70
2023/09/03 22:03:45;;;;;;;6.57;4.05;;;;;;;;;;10228116;28;20587;-68
2023/09/03 22:08:37;;;;;;;13.20;6.35;;;;;;;;;;10227882;28;20096;-69
2023/09/03 22:13:31;;;;;;;5.55;4.32;;;;;;;;;;10227941;28;20404;-69
2023/09/03 22:18:24;;;;;;;5.85;5.22;;;;;;;;;;10228574;28;20435;-69
2023/09/03 22:23:16;;;;;;;8.52;5.65;;;;;;;;;;10225341;28;20044;-69
2023/09/03 22:28:09;;;;;;;6.38;5.18;;;;;;;;;;10219666;28;20048;-69
2023/09/03 22:33:01;;;;;;;6.28;5.70;;;;;;;;;;10218350;28;20474;-71
2023/09/03 22:37:53;;;;;;;6.40;4.40;;;;;;;;;;10224936;28;20493;-70
2023/09/03 22:42:44;;;;;;;6.50;5.82;;;;;;;;;;10219023;28;20040;-70
2023/09/03 22:47:37;;;;;;;6.80;4.78;;;;;;;;;;10224795;28;20043;-68
2023/09/03 22:52:29;;;;;;;6.55;4.78;;;;;;;;;;10220244;28;20090;-70
2023/09/03 22:57:22;;;;;;;10.25;5.18;;;;;;;;;;10220629;28;20067;-70
2023/09/03 23:02:14;;;;;;;8.00;3.97;;;;;;;;;;10214058;28;20086;-71
2023/09/03 23:07:06;;;;;;;5.78;4.97;;;;;;;;;;10220402;28;20047;-70
2023/09/03 23:11:58;;;;;;;5.88;4.68;;;;;;;;;;10227320;28;20051;-70
2023/09/03 23:16:51;;;;;;;6.97;4.95;;;;;;;;;;10209082;28;20127;-70
2023/09/03 23:21:46;;;;;;;8.10;4.88;;;;;;;;;;10226740;28;20093;-70
2023/09/03 23:26:38;;;;;;;5.28;3.95;;;;;;;;;;10225393;28;20124;-70
2023/09/03 23:31:30;;;;;;;5.13;4.60;;;;;;;;;;10224590;28;20031;-69
2023/09/03 23:36:22;;;;;;;4.60;4.03;;;;;;;;;;10226474;28;20477;-67
2023/09/03 23:41:14;;;;;;;5.20;4.70;;;;;;;;;;10224795;28;20093;-69
2023/09/03 23:46:06;;;;;;;7.50;4.80;;;;;;;;;;10223138;28;20059;-71
2023/09/03 23:50:58;;;;;;;7.18;5.28;;;;;;;;;;10225371;28;20047;-70
2023/09/03 23:55:53;;;;;;;8.40;5.60;;;;;;;;;;10224640;28;20071;-70
